Time;durP1;ratioP1;P1;durP2;ratioP2;P2;SDS_P1;SDS_P2;PMS_P1;PMS_P2;Temp;Humidity;BMP_temperature;BMP_pressure;BME280_temperature;BME280_humidity;BME280_pressure;Samples;Min_cycle;Max_cycle;Signal;HPM_P1;HPM_P2
2022/09/30 00:02:35;;;;;;;13.80;8.18;;;;;;;9.85;69.78;98221.41;5154712;28;20042;-67
2022/09/30 00:05:25;;;;;;;16.25;7.70;;;;;;;10.09;68.64;98219.88;5171080;28;20505;-68
2022/09/30 00:08:15;;;;;;;16.88;8.43;;;;;;;9.61;69.79;98221.31;5164464;28;20761;-68
2022/09/30 00:11:12;;;;;;;15.82;7.72;;;;;;;9.52;69.56;98216.94;5172943;28;20631;-68
2022/09/30 00:14:02;;;;;;;13.77;7.50;;;;;;;9.51;69.64;98225.88;5161118;28;20564;-67
2022/09/30 00:16:52;;;;;;;11.35;7.18;;;;;;;9.47;68.89;98222.72;5163539;28;20421;-67
2022/09/30 00:19:42;;;;;;;15.10;7.03;;;;;;;9.37;69.39;98222.81;5172714;28;20057;-68
2022/09/30 00:22:32;;;;;;;12.95;7.47;;;;;;;9.30;69.17;98219.09;5163421;28;20077;-67
2022/09/30 00:25:23;;;;;;;13.85;7.68;;;;;;;9.37;69.24;98220.16;5163270;28;20132;-68
2022/09/30 00:28:14;;;;;;;12.05;7.32;;;;;;;9.26;69.03;98212.47;5174695;28;20057;-66
2022/09/30 00:31:06;;;;;;;17.40;7.65;;;;;;;9.25;69.67;98223.22;5165196;28;20421;-67
2022/09/30 00:34:05;;;;;;;15.85;8.30;;;;;;;9.26;69.34;98223.03;5144307;28;20559;-68
2022/09/30 00:36:56;;;;;;;17.80;7.60;;;;;;;9.24;70.24;98225.03;5161663;28;20050;-67
2022/09/30 00:39:46;;;;;;;15.43;8.13;;;;;;;9.15;70.24;98218.00;5175362;28;20133;-67
2022/09/30 00:42:40;;;;;;;23.15;7.88;;;;;;;8.88;70.43;98208.38;5151392;28;20520;-68
2022/09/30 00:45:31;;;;;;;12.52;7.25;;;;;;;8.93;69.43;98228.06;5157569;28;20128;-66
2022/09/30 00:48:32;;;;;;;16.08;8.20;;;;;;;8.94;70.17;98218.34;5174603;28;20058;-68
2022/09/30 00:51:39;;;;;;;15.75;7.47;;;;;;;8.84;70.49;98222.88;5173904;28;20543;-68
2022/09/30 00:54:30;;;;;;;12.77;7.80;;;;;;;8.82;69.97;98225.66;5159950;28;20452;-66
2022/09/30 00:57:20;;;;;;;12.93;7.30;;;;;;;8.74;70.99;98222.09;5170695;28;20087;-66
2022/09/30 01:00:10;;;;;;;14.75;8.15;;;;;;;8.79;70.48;98225.97;5163620;28;20043;-67
2022/09/30 01:03:02;;;;;;;12.95;7.57;;;;;;;8.70;70.08;98221.59;5179211;28;20633;-68
2022/09/30 01:05:53;;;;;;;15.80;8.10;;;;;;;8.84;70.50;98236.94;5164695;28;20512;-67
2022/09/30 01:08:45;;;;;;;13.77;7.43;;;;;;;9.02;70.09;98244.03;5169793;28;20054;-67
2022/09/30 01:11:35;;;;;;;15.07;7.20;;;;;;;8.99;70.00;98250.44;5165416;28;20647;-66
2022/09/30 01:14:27;;;;;;;14.35;7.55;;;;;;;8.87;70.69;98247.22;5167886;28;20058;-68
2022/09/30 01:17:26;;;;;;;22.33;7.82;;;;;;;8.92;70.44;98250.22;5182269;28;20134;-67
2022/09/30 01:20:49;;;;;;;13.18;8.23;;;;;;;8.92;70.60;98250.22;5166203;28;20050;-68
2022/09/30 01:24:18;;;;;;;17.25;8.23;;;;;;;8.89;70.79;98207.38;5181616;28;20049;-66
2022/09/30 01:27:19;;;;;;;14.32;7.53;;;;;;;9.01;70.70;98242.38;5175439;28;20049;-66
2022/09/30 01:30:17;;;;;;;11.15;7.43;;;;;;;9.05;70.78;98249.84;5158626;28;20054;-67
2022/09/30 01:33:30;;;;;;;12.90;7.38;;;;;;;8.99;70.38;98252.25;5167073;28;20060;-68
2022/09/30 01:36:39;;;;;;;14.88;7.50;;;;;;;9.06;70.81;98245.38;5179880;28;20054;-70
2022/09/30 01:39:44;;;;;;;13.95;7.65;;;;;;;9.07;71.31;98247.88;5174548;28;20579;-66
2022/09/30 01:42:51;;;;;;;11.52;7.45;;;;;;;9.00;71.41;98248.63;5174979;28;20069;-68
2022/09/30 01:45:55;;;;;;;11.75;8.02;;;;;;;9.04;70.92;98247.31;5180505;28;20156;-70
2022/09/30 01:49:04;;;;;;;13.90;8.02;;;;;;;8.98;71.02;98255.91;5161345;28;20144;-68
2022/09/30 01:52:06;;;;;;;12.60;7.68;;;;;;;8.98;71.20;98258.53;5169478;28;20132;-66
2022/09/30 01:55:03;;;;;;;13.65;7.82;;;;;;;9.22;71.88;98249.97;5177269;28;20112;-68
2022/09/30 01:57:59;;;;;;;16.55;8.20;;;;;;;9.10;71.27;98265.22;5175413;28;20115;-68
2022/09/30 02:00:54;;;;;;;15.30;8.38;;;;;;;9.17;71.59;98263.63;5145256;28;20057;-68
2022/09/30 02:03:51;;;;;;;16.95;8.40;;;;;;;9.30;71.10;98269.38;5164183;28;20057;-68
2022/09/30 02:06:47;;;;;;;15.25;8.90;;;;;;;9.31;71.98;98265.75;5162537;28;20193;-67
2022/09/30 02:09:48;;;;;;;16.95;9.35;;;;;;;9.36;71.19;98265.28;5162783;28;20514;-68
2022/09/30 02:12:47;;;;;;;16.33;8.48;;;;;;;9.13;71.85;98265.75;5173992;28;20046;-67
2022/09/30 02:15:43;;;;;;;15.90;7.90;;;;;;;9.26;71.60;98275.94;5160135;28;20128;-68
2022/09/30 02:18:45;;;;;;;14.38;8.63;;;;;;;9.25;71.27;98292.00;5157331;28;20123;-70
2022/09/30 02:21:41;;;;;;;17.48;8.48;;;;;;;9.15;72.52;98286.78;5158132;28;20054;-66
2022/09/30 02:24:37;;;;;;;12.70;8.43;;;;;;;9.14;72.25;98280.66;5177480;28;20068;-67
2022/09/30 02:27:41;;;;;;;17.02;8.95;;;;;;;9.38;72.09;98281.84;5176275;28;20042;-66
2022/09/30 02:30:35;;;;;;;16.73;8.73;;;;;;;9.67;71.75;98296.59;5160840;28;20160;-65
2022/09/30 02:33:53;;;;;;;13.95;8.73;;;;;;;9.52;70.68;98299.81;5170820;28;20068;-66
2022/09/30 02:36:53;;;;;;;16.85;8.80;;;;;;;9.37;71.55;98301.31;5163477;28;20082;-68
2022/09/30 02:39:56;;;;;;;22.08;8.50;;;;;;;9.46;72.31;98300.41;5170469;28;20163;-66
2022/09/30 02:42:48;;;;;;;22.40;9.30;;;;;;;9.45;72.29;98300.59;5171683;28;20056;-65
2022/09/30 02:46:12;;;;;;;24.35;10.02;;;;;;;9.48;72.10;98298.47;5156442;28;20116;-67
2022/09/30 02:49:36;;;;;;;19.40;10.35;;;;;;;9.56;71.75;98306.44;5159288;28;20091;-66
2022/09/30 02:53:11;;;;;;;22.20;10.30;;;;;;;9.54;71.26;98304.97;5158956;28;20152;-66
2022/09/30 02:56:37;;;;;;;21.38;10.65;;;;;;;9.50;72.46;98309.69;5157147;28;20421;-65
2022/09/30 02:59:27;;;;;;;17.48;9.63;;;;;;;9.63;71.79;98306.66;5166057;28;20061;-66
2022/09/30 03:02:18;;;;;;;15.75;9.15;;;;;;;9.38;71.67;98253.56;5156356;28;20113;-64
2022/09/30 03:05:10;;;;;;;17.27;9.82;;;;;;;9.73;70.66;98315.31;5142825;28;20042;-66
2022/09/30 03:08:00;;;;;;;15.73;9.48;;;;;;;9.68;70.63;98316.81;5153779;28;20117;-68
2022/09/30 03:10:51;;;;;;;19.38;9.35;;;;;;;9.69;70.18;98321.09;5158661;28;20429;-67
2022/09/30 03:14:06;;;;;;;17.20;9.43;;;;;;;9.48;70.76;98318.81;5155516;28;20054;-66
2022/09/30 03:17:18;;;;;;;23.88;9.23;;;;;;;9.47;69.63;98327.69;5158398;28;20053;-67
2022/09/30 03:20:16;;;;;;;14.82;8.15;;;;;;;9.38;71.05;98325.00;5160360;28;20053;-66
2022/09/30 03:23:29;;;;;;;19.38;8.55;;;;;;;9.32;70.79;98320.31;5162850;28;20058;-69
2022/09/30 03:26:25;;;;;;;16.85;7.63;;;;;;;9.22;70.26;98332.78;5158347;28;20662;-67
2022/09/30 03:29:40;;;;;;;14.05;7.55;;;;;;;9.22;70.72;98330.16;5157454;28;20528;-67
2022/09/30 03:32:48;;;;;;;;;;;;;;;9.07;70.06;98326.34;5171088;28;20061;-66
2022/09/30 03:35:51;;;;;;;11.00;6.63;;;;;;;9.08;70.70;98333.34;5175044;28;19927;-66
2022/09/30 03:38:51;;;;;;;14.57;7.70;;;;;;;8.99;70.45;98334.22;5165669;28;20051;-66
2022/09/30 03:41:54;;;;;;;13.57;7.25;;;;;;;9.02;71.61;98344.50;5173038;28;20100;-66
2022/09/30 03:44:56;;;;;;;15.27;8.00;;;;;;;8.80;72.15;98337.81;5165474;28;20120;-68
2022/09/30 03:47:52;;;;;;;12.05;7.18;;;;;;;8.84;70.72;98333.88;5184912;28;20493;-67
2022/09/30 03:50:43;;;;;;;14.07;8.10;;;;;;;8.79;70.27;98337.00;5167583;28;20058;-66
2022/09/30 03:53:41;;;;;;;16.98;7.90;;;;;;;8.93;70.87;98331.19;5161458;28;20509;-67
2022/09/30 03:56:32;;;;;;;13.27;7.60;;;;;;;8.99;70.55;98339.50;5167283;28;20548;-67
2022/09/30 03:59:24;;;;;;;14.45;7.22;;;;;;;9.02;69.48;98344.50;5150725;28;20050;-66
2022/09/30 04:02:14;;;;;;;16.73;7.47;;;;;;;8.75;69.40;98353.31;5168448;28;20054;-67
2022/09/30 04:05:05;;;;;;;12.00;7.38;;;;;;;8.76;70.30;98360.25;5165483;28;20104;-66
2022/09/30 04:07:55;;;;;;;11.77;7.15;;;;;;;8.52;70.13;98368.72;5174216;28;20050;-68
2022/09/30 04:10:45;;;;;;;10.82;7.15;;;;;;;8.46;70.56;98370.13;5164076;28;20145;-66
2022/09/30 04:13:36;;;;;;;13.77;7.35;;;;;;;8.45;69.63;98374.59;5171020;28;20049;-68
2022/09/30 04:16:31;;;;;;;15.02;7.40;;;;;;;8.54;70.22;98377.31;5184149;28;20050;-65
2022/09/30 04:19:21;;;;;;;13.32;7.85;;;;;;;8.52;70.32;98374.00;5154170;28;20116;-68
2022/09/30 04:22:11;;;;;;;17.27;7.40;;;;;;;8.49;69.49;98376.94;5172119;28;20134;-69
2022/09/30 04:25:01;;;;;;;13.32;6.68;;;;;;;8.22;71.62;98373.25;5166140;28;20058;-66
2022/09/30 04:27:53;;;;;;;12.95;6.93;;;;;;;8.46;70.33;98375.41;5162514;28;20559;-66
2022/09/30 04:30:43;;;;;;;9.40;6.80;;;;;;;8.45;70.21;98377.22;5162534;28;20108;-66
2022/09/30 04:33:33;;;;;;;16.58;7.28;;;;;;;8.19;69.35;98369.09;5171427;28;20101;-68
2022/09/30 04:36:23;;;;;;;10.43;7.05;;;;;;;7.91;70.65;98365.56;5160123;28;20558;-67
2022/09/30 04:39:13;;;;;;;12.98;7.05;;;;;;;8.10;70.16;98374.38;5166247;28;20052;-69
2022/09/30 04:42:03;;;;;;;12.30;6.90;;;;;;;8.08;69.93;98376.31;5158103;28;20493;-68
2022/09/30 04:44:53;;;;;;;13.13;7.43;;;;;;;8.00;70.00;98377.88;5158685;28;20050;-67
2022/09/30 04:47:46;;;;;;;19.63;7.07;;;;;;;7.87;69.53;98384.44;5168999;28;20579;-68
2022/09/30 04:50:36;;;;;;;11.15;7.03;;;;;;;7.77;69.82;98392.38;5167100;28;20111;-67
2022/09/30 04:53:28;;;;;;;11.65;7.07;;;;;;;7.75;69.58;98397.81;5153378;28;20172;-68
2022/09/30 04:56:18;;;;;;;12.25;7.15;;;;;;;7.66;69.47;98392.53;5158035;28;20042;-67
2022/09/30 04:59:08;;;;;;;12.80;7.43;;;;;;;7.74;70.49;98406.66;5166465;28;20045;-68
2022/09/30 05:01:58;;;;;;;14.38;7.07;;;;;;;7.53;69.93;98404.19;5148272;28;20060;-67
2022/09/30 05:04:49;;;;;;;14.57;6.88;;;;;;;7.74;70.39;98406.66;5162249;28;20177;-67
2022/09/30 05:07:39;;;;;;;13.13;7.05;;;;;;;7.76;70.92;98403.91;5163168;28;20101;-68
2022/09/30 05:10:29;;;;;;;13.25;7.10;;;;;;;7.81;71.14;98411.41;5148313;28;20438;-70
2022/09/30 05:13:20;;;;;;;10.50;6.85;;;;;;;7.87;70.90;98416.94;5163231;28;20058;-71
2022/09/30 05:16:11;;;;;;;13.30;7.38;;;;;;;7.86;71.58;98425.03;5167844;28;20046;-68
2022/09/30 05:19:02;;;;;;;13.07;6.85;;;;;;;7.76;70.53;98430.31;5164495;28;20042;-68
2022/09/30 05:21:52;;;;;;;11.18;7.07;;;;;;;7.78;70.27;98430.97;5172647;28;20054;-72
2022/09/30 05:24:42;;;;;;;13.18;6.97;;;;;;;7.91;70.60;98434.19;5166422;28;20053;-70
2022/09/30 05:27:33;;;;;;;12.02;6.97;;;;;;;8.00;71.05;98435.97;5163172;28;20042;-68
2022/09/30 05:30:23;;;;;;;19.10;7.00;;;;;;;8.03;71.51;98436.66;5162012;28;20051;-68
2022/09/30 05:33:13;;;;;;;15.07;7.35;;;;;;;8.06;71.50;98431.09;5148157;28;20061;-69
2022/09/30 05:36:10;;;;;;;10.95;6.85;;;;;;;8.30;72.00;98434.09;5162613;28;20429;-68
2022/09/30 05:39:01;;;;;;;14.85;8.38;;;;;;;8.39;71.82;98441.19;5149286;28;20583;-69
2022/09/30 05:41:51;;;;;;;31.98;17.48;;;;;;;8.53;72.71;98444.34;5171369;28;20586;-68
2022/09/30 05:44:41;;;;;;;20.00;10.52;;;;;;;8.66;71.46;98456.25;5169861;28;20046;-68
2022/09/30 05:47:32;;;;;;;19.63;8.40;;;;;;;8.72;71.94;98446.09;5158568;28;20052;-68
2022/09/30 05:50:23;;;;;;;14.93;8.13;;;;;;;8.64;71.23;98434.47;5167170;28;20069;-68
2022/09/30 05:53:13;;;;;;;14.02;7.97;;;;;;;8.53;71.58;98449.66;5164618;28;20116;-67
2022/09/30 05:56:05;;;;;;;14.20;8.25;;;;;;;8.78;72.15;98464.84;5160140;28;20057;-67
2022/09/30 05:58:55;;;;;;;13.82;7.65;;;;;;;8.72;72.27;98454.03;5162172;28;20057;-69
2022/09/30 06:01:46;;;;;;;14.45;8.18;;;;;;;8.85;71.53;98454.53;5156389;28;20073;-68
2022/09/30 06:04:36;;;;;;;16.05;9.20;;;;;;;9.05;71.48;98465.84;5146977;28;20136;-67
2022/09/30 06:07:27;;;;;;;16.27;9.57;;;;;;;8.91;71.10;98462.72;5162130;28;20057;-69
2022/09/30 06:10:17;;;;;;;15.10;8.52;;;;;;;8.89;72.16;98472.59;5162070;28;20065;-67
2022/09/30 06:13:08;;;;;;;16.73;8.70;;;;;;;8.94;71.53;98469.53;5147206;28;20058;-69
2022/09/30 06:16:00;;;;;;;17.38;8.23;;;;;;;8.96;71.62;98483.41;5139270;28;20066;-69
2022/09/30 06:18:50;;;;;;;13.45;8.75;;;;;;;8.80;70.75;98465.53;5123661;28;20440;-65
2022/09/30 06:21:40;;;;;;;11.50;8.05;;;;;;;8.85;71.05;98476.50;5139776;28;20053;-67
2022/09/30 06:24:31;;;;;;;23.05;9.82;;;;;;;8.91;71.21;98485.69;5154332;28;20053;-66
2022/09/30 06:27:21;;;;;;;22.60;10.48;;;;;;;9.05;71.26;98487.00;5153727;28;20058;-68
2022/09/30 06:30:11;;;;;;;16.98;8.93;;;;;;;9.22;70.90;98488.88;5158096;28;20133;-68
2022/09/30 06:33:01;;;;;;;24.70;9.35;;;;;;;9.33;70.70;98490.47;5157751;28;20424;-69
2022/09/30 06:35:51;;;;;;;16.33;8.68;;;;;;;9.47;71.00;98489.97;5175244;28;20142;-67
2022/09/30 06:38:41;;;;;;;21.60;8.57;;;;;;;9.28;70.36;98482.16;5159115;28;20046;-65
2022/09/30 06:41:32;;;;;;;19.75;8.73;;;;;;;9.31;70.52;98492.44;5159356;28;20072;-66
2022/09/30 06:44:22;;;;;;;14.93;9.02;;;;;;;9.50;70.83;98505.53;5165422;28;20050;-66
2022/09/30 06:47:13;;;;;;;16.13;8.98;;;;;;;9.58;70.69;98488.94;5168616;28;20045;-65
2022/09/30 06:50:13;;;;;;;21.30;10.88;;;;;;;9.79;70.56;98513.28;5178429;28;20562;-66
2022/09/30 06:53:13;;;;;;;28.25;13.93;;;;;;;9.96;70.38;98516.09;5156110;28;20043;-67
2022/09/30 06:56:03;;;;;;;31.63;16.35;;;;;;;9.93;70.34;98524.34;5167543;28;20241;-67
2022/09/30 06:58:55;;;;;;;17.98;10.68;;;;;;;9.61;69.95;98502.69;5168072;28;20519;-67
2022/09/30 07:01:46;;;;;;;17.33;9.45;;;;;;;9.73;71.24;98519.19;5166057;28;20097;-67
2022/09/30 07:04:36;;;;;;;17.58;10.25;;;;;;;10.23;70.35;98531.06;5143250;28;20429;-67
2022/09/30 07:07:26;;;;;;;17.65;10.07;;;;;;;10.69;68.72;98524.63;5146219;28;20526;-67
2022/09/30 07:10:16;;;;;;;20.65;10.73;;;;;;;11.03;67.52;98529.16;5146001;28;20115;-67
2022/09/30 07:13:07;;;;;;;17.55;10.80;;;;;;;10.96;67.85;98533.41;5150002;28;20081;-67
2022/09/30 07:15:56;;;;;;;18.52;10.25;;;;;;;10.80;67.72;98542.13;5156373;28;20054;-67
2022/09/30 07:18:47;;;;;;;16.23;9.52;;;;;;;10.97;67.48;98545.72;5154540;28;20201;-67
2022/09/30 07:21:37;;;;;;;14.70;9.35;;;;;;;11.34;66.74;98549.88;5156704;28;20058;-67
2022/09/30 07:24:28;;;;;;;13.82;8.75;;;;;;;11.64;66.74;98557.28;5147282;28;20050;-67
2022/09/30 07:27:18;;;;;;;21.83;9.15;;;;;;;12.21;65.28;98540.63;5148113;28;20085;-67
2022/09/30 07:30:09;;;;;;;20.98;10.57;;;;;;;12.47;64.43;98556.44;5144124;28;20092;-67
2022/09/30 07:33:15;;;;;;;26.73;10.18;;;;;;;12.19;64.90;98548.78;5151913;28;20062;-67
2022/09/30 07:36:07;;;;;;;21.50;10.10;;;;;;;11.97;66.17;98546.75;5145494;28;20359;-67
2022/09/30 07:38:57;;;;;;;19.52;9.48;;;;;;;11.94;65.63;98555.88;5145936;28;20479;-67
2022/09/30 07:41:47;;;;;;;20.02;10.38;;;;;;;12.04;65.42;98565.53;5149769;28;20298;-68
2022/09/30 07:44:40;;;;;;;19.00;10.02;;;;;;;11.87;64.60;98557.53;5149921;28;20077;-67
2022/09/30 07:47:30;;;;;;;15.40;9.93;;;;;;;11.71;64.58;98558.28;5156544;28;20054;-68
2022/09/30 07:50:20;;;;;;;14.15;9.60;;;;;;;12.09;63.95;98568.56;5152471;28;20168;-67
2022/09/30 07:53:10;;;;;;;17.63;10.15;;;;;;;12.41;62.44;98573.88;5147553;28;20129;-67
2022/09/30 07:56:05;;;;;;;17.45;10.45;;;;;;;12.62;62.79;98568.06;5145779;28;20090;-67
2022/09/30 07:58:58;;;;;;;17.17;9.73;;;;;;;12.92;62.47;98584.34;5156174;28;20085;-67
2022/09/30 08:01:49;;;;;;;16.40;8.73;;;;;;;13.13;61.59;98579.28;5144633;28;20420;-67
2022/09/30 08:04:40;;;;;;;19.65;10.02;;;;;;;13.49;60.96;98584.22;5147173;28;20671;-67
2022/09/30 08:07:33;;;;;;;15.60;9.88;;;;;;;14.24;58.56;98582.84;5144333;28;20061;-67
2022/09/30 08:10:23;;;;;;;20.88;10.40;;;;;;;14.57;57.29;98586.13;5139552;28;20069;-67
2022/09/30 08:13:15;;;;;;;19.10;10.07;;;;;;;14.46;58.32;98599.81;5149998;28;20081;-68
2022/09/30 08:16:06;;;;;;;14.68;9.68;;;;;;;14.82;58.75;98586.72;5156935;28;20482;-67
2022/09/30 08:18:59;;;;;;;18.83;11.07;;;;;;;15.37;55.96;98601.53;5154406;28;20589;-67
2022/09/30 08:21:51;;;;;;;20.33;9.57;;;;;;;15.47;57.39;98604.75;5148449;28;20065;-68
2022/09/30 08:24:42;;;;;;;13.07;8.38;;;;;;;15.67;55.20;98613.06;5153012;28;20096;-67
2022/09/30 08:27:32;;;;;;;15.90;9.15;;;;;;;15.36;56.76;98615.88;5147885;28;20574;-68
2022/09/30 08:30:22;;;;;;;16.55;8.20;;;;;;;15.82;56.11;98610.34;5148465;28;20144;-68
2022/09/30 08:33:12;;;;;;;14.02;9.23;;;;;;;16.18;54.75;98614.91;5145046;28;20061;-68
2022/09/30 08:36:14;;;;;;;17.17;9.20;;;;;;;16.26;52.79;98617.47;5141076;28;20132;-67
2022/09/30 08:39:04;;;;;;;15.75;9.27;;;;;;;16.28;55.61;98603.88;5141800;28;20057;-69
2022/09/30 08:42:17;;;;;;;13.15;9.27;;;;;;;16.51;54.92;98615.25;5142909;28;20130;-68
2022/09/30 08:45:43;;;;;;;21.60;10.50;;;;;;;16.73;53.18;98615.25;5136521;28;20054;-68
2022/09/30 08:48:48;;;;;;;17.35;9.65;;;;;;;16.66;55.55;98618.69;5144448;28;20474;-68
2022/09/30 08:51:44;;;;;;;18.35;9.90;;;;;;;16.71;54.45;98611.91;5133920;28;20061;-69
2022/09/30 08:54:35;;;;;;;17.30;10.55;;;;;;;16.83;54.33;98605.88;5143801;28;20081;-69
2022/09/30 08:57:37;;;;;;;18.70;10.13;;;;;;;16.83;53.27;98619.28;5138684;28;20089;-69
2022/09/30 09:00:31;;;;;;;16.95;10.50;;;;;;;17.43;51.52;98610.84;5132720;28;20062;-68
2022/09/30 09:03:26;;;;;;;21.20;10.73;;;;;;;17.73;51.84;98604.19;5142913;28;20076;-69
2022/09/30 09:06:38;;;;;;;17.75;10.98;;;;;;;18.58;51.26;98614.63;5143180;28;20054;-69
2022/09/30 09:09:53;;;;;;;15.57;10.27;;;;;;;19.14;49.63;98614.22;5145315;28;20065;-70
2022/09/30 09:12:55;;;;;;;;;;;;;;;19.34;48.84;98611.53;5141160;28;20733;-69
2022/09/30 09:16:15;;;;;;;14.80;10.23;;;;;;;19.22;50.04;98611.34;5144720;28;20383;-69
2022/09/30 09:19:16;;;;;;;13.60;9.80;;;;;;;19.54;49.04;98609.63;5136889;28;20192;-69
2022/09/30 09:22:08;;;;;;;14.13;9.13;;;;;;;19.40;48.93;98616.91;5132359;28;20061;-69
2022/09/30 09:25:00;;;;;;;11.20;8.20;;;;;;;19.46;48.72;98601.78;5154578;28;20101;-69
2022/09/30 09:27:55;;;;;;;11.82;8.27;;;;;;;19.60;48.19;98600.72;5142656;28;20655;-69
2022/09/30 09:30:51;;;;;;;9.95;7.50;;;;;;;19.32;47.02;98610.91;5149765;28;20102;-69
2022/09/30 09:33:42;;;;;;;8.98;6.93;;;;;;;19.12;47.61;98606.38;5155800;28;21814;-70
2022/09/30 09:36:44;;;;;;;11.02;7.38;;;;;;;19.18;46.75;98607.41;5152049;28;20050;-70
2022/09/30 09:40:17;;;;;;;9.80;6.57;;;;;;;19.38;46.00;98612.75;5154121;28;20086;-71
2022/09/30 09:43:32;;;;;;;11.05;7.03;;;;;;;19.22;45.89;98614.84;5122337;28;20425;-69
2022/09/30 09:46:44;;;;;;;13.68;7.93;;;;;;;18.92;47.46;98619.00;5153965;28;20613;-71
2022/09/30 09:49:37;;;;;;;10.23;7.20;;;;;;;18.30;49.85;98610.19;5144823;28;20108;-71
2022/09/30 09:52:43;;;;;;;12.38;7.70;;;;;;;18.57;49.16;98618.31;5150974;28;20080;-70
2022/09/30 09:55:34;;;;;;;11.18;6.95;;;;;;;19.38;47.47;98618.13;5153020;28;20069;-70
2022/09/30 09:58:25;;;;;;;11.50;7.57;;;;;;;19.34;46.44;98615.03;5150831;28;20054;-68
2022/09/30 10:01:31;;;;;;;8.98;7.65;;;;;;;19.08;48.56;98605.16;5147404;28;20749;-67
2022/09/30 10:04:28;;;;;;;11.18;6.60;;;;;;;19.24;48.70;98595.84;5143916;28;20046;-68
2022/09/30 10:07:19;;;;;;;11.82;7.15;;;;;;;19.48;48.91;98608.59;5147192;28;20084;-70
2022/09/30 10:10:19;;;;;;;10.30;6.93;;;;;;;19.73;46.52;98607.91;5125740;28;20046;-68
2022/09/30 10:13:22;;;;;;;10.13;6.78;;;;;;;19.54;46.32;98604.25;5127572;28;20049;-68
2022/09/30 10:16:30;;;;;;;12.13;7.07;;;;;;;19.63;45.35;98611.06;5148576;28;20068;-68
2022/09/30 10:19:25;;;;;;;11.05;7.13;;;;;;;20.12;46.34;98619.56;5146968;28;20049;-68
2022/09/30 10:22:16;;;;;;;10.43;7.80;;;;;;;20.60;47.77;98614.56;5141629;28;20072;-67
2022/09/30 10:25:23;;;;;;;9.45;7.10;;;;;;;21.01;43.37;98615.91;5135054;28;20132;-68
2022/09/30 10:28:27;;;;;;;9.45;7.47;;;;;;;20.62;47.07;98615.16;5138644;28;20057;-69
2022/09/30 10:31:40;;;;;;;14.18;8.48;;;;;;;20.30;47.91;98608.09;5138428;28;20133;-69
2022/09/30 10:34:35;;;;;;;10.55;7.25;;;;;;;20.23;48.21;98612.69;5142173;28;20056;-68
2022/09/30 10:37:25;;;;;;;8.25;5.78;;;;;;;20.38;44.83;98613.22;5138409;28;20085;-67
2022/09/30 10:40:17;;;;;;;9.70;5.20;;;;;;;20.15;44.17;98609.19;5144246;28;20054;-69
2022/09/30 10:43:20;;;;;;;8.18;5.25;;;;;;;19.76;45.39;98626.34;5151204;28;20652;-68
2022/09/30 10:46:10;;;;;;;6.22;5.00;;;;;;;19.55;48.08;98623.88;5146204;28;20205;-69
2022/09/30 10:49:27;;;;;;;6.97;5.00;;;;;;;19.51;47.07;98628.88;5133049;28;20423;-69
2022/09/30 10:52:25;;;;;;;10.30;5.03;;;;;;;19.13;49.40;98604.50;5156599;28;20085;-69
2022/09/30 10:55:18;;;;;;;7.78;4.63;;;;;;;19.31;47.48;98626.22;5144433;28;20136;-70
2022/09/30 10:58:20;;;;;;;11.40;5.30;;;;;;;19.35;48.34;98618.56;5153836;28;20768;-68
2022/09/30 11:01:31;;;;;;;10.10;5.15;;;;;;;19.25;46.97;98621.66;5153493;28;20062;-69
2022/09/30 11:04:28;;;;;;;8.93;4.50;;;;;;;19.41;50.03;98621.22;5154522;28;20061;-69
2022/09/30 11:07:41;;;;;;;4.70;3.38;;;;;;;19.63;45.56;98619.13;5182536;22;20057;-84
2022/09/30 11:10:52;;;;;;;6.20;3.45;;;;;;;19.14;46.07;98620.44;5178312;28;20518;-85
2022/09/30 11:14:04;;;;;;;9.20;4.38;;;;;;;19.24;46.83;98623.53;5187990;28;20122;-84
2022/09/30 11:17:32;;;;;;;5.65;3.78;;;;;;;19.42;45.73;98614.00;5179688;28;20064;-85
2022/09/30 11:20:34;;;;;;;5.50;3.35;;;;;;;19.11;46.25;98607.41;5175989;28;20136;-84
2022/09/30 11:23:35;;;;;;;10.88;4.10;;;;;;;18.65;45.84;98612.75;5179138;28;20107;-85
2022/09/30 11:26:44;;;;;;;6.45;3.70;;;;;;;19.31;47.22;98617.31;5174207;28;20056;-85
2022/09/30 11:29:43;;;;;;;12.52;6.30;;;;;;;18.89;45.44;98614.03;5177341;28;20573;-83
2022/09/30 11:33:02;;;;;;;5.50;3.28;;;;;;;19.09;45.70;98611.34;5181688;28;20095;-84
2022/09/30 11:36:03;;;;;;;6.32;3.63;;;;;;;18.94;44.33;98611.53;5177956;28;20529;-85
2022/09/30 11:39:18;;;;;;;4.45;2.88;;;;;;;18.97;46.77;98590.50;5175767;28;20554;-85
2022/09/30 11:42:21;;;;;;;5.68;3.03;;;;;;;18.98;45.32;98621.69;5166367;28;20123;-85
2022/09/30 11:45:30;;;;;;;8.88;3.83;;;;;;;18.87;43.99;98602.66;5173894;28;20088;-85
2022/09/30 11:48:40;;;;;;;4.75;3.10;;;;;;;19.02;48.42;98608.66;5184018;28;20597;-85
2022/09/30 11:52:05;;;;;;;6.72;3.55;;;;;;;19.10;46.63;98621.06;5163778;28;20060;-86
2022/09/30 11:55:14;;;;;;;4.30;3.30;;;;;;;19.27;43.54;98622.28;5178291;28;20091;-86
2022/09/30 11:58:22;;;;;;;6.53;3.58;;;;;;;18.76;45.53;98618.38;5179926;28;20419;-85
2022/09/30 12:01:36;;;;;;;4.75;2.75;;;;;;;18.87;47.04;98624.16;5184040;28;20057;-83
2022/09/30 12:04:38;;;;;;;4.78;3.10;;;;;;;18.97;46.06;98611.13;5207848;28;20077;-84
2022/09/30 12:07:43;;;;;;;5.15;3.03;;;;;;;17.76;45.25;98598.47;5170250;28;20121;-85
2022/09/30 12:10:42;;;;;;;8.05;3.47;;;;;;;18.49;46.32;98604.06;5171469;28;20100;-86
2022/09/30 12:13:36;;;;;;;4.15;2.63;;;;;;;18.58;45.09;98602.00;5170993;28;20100;-85
2022/09/30 12:16:28;;;;;;;;;;;;;;;18.69;45.01;98614.00;5194884;28;20108;-85
2022/09/30 12:19:30;;;;;;;7.25;2.85;;;;;;;18.55;45.16;98573.72;5164856;28;19944;-84
2022/09/30 12:22:40;;;;;;;7.13;3.13;;;;;;;18.80;45.25;98583.84;5184582;28;20057;-83
2022/09/30 12:25:39;;;;;;;4.65;2.95;;;;;;;18.71;44.97;98590.47;5201641;28;20072;-81
2022/09/30 12:32:21;;;;;;;4.40;2.28;;;;;;;18.80;45.84;98610.72;5184681;28;21352;-79
2022/09/30 12:35:27;;;;;;;4.15;2.20;;;;;;;18.87;45.87;98610.72;5194145;28;20075;-79
2022/09/30 12:38:55;;;;;;;6.55;2.92;;;;;;;18.37;45.39;98552.00;5186869;28;20061;-81
2022/09/30 12:42:10;;;;;;;4.85;3.03;;;;;;;18.76;44.45;98615.69;5150375;28;20107;-81
2022/09/30 12:45:18;;;;;;;7.22;2.90;;;;;;;18.80;43.97;98615.25;5171387;28;20054;-81
2022/09/30 12:48:15;;;;;;;6.28;3.30;;;;;;;18.29;44.54;98601.34;5151783;28;20045;-81
2022/09/30 12:51:07;;;;;;;4.40;3.35;;;;;;;18.27;43.20;98594.50;5173648;28;20097;-82
2022/09/30 12:54:21;;;;;;;6.05;3.22;;;;;;;18.34;45.45;98586.47;5153624;28;20080;-80
2022/09/30 12:57:19;;;;;;;7.25;2.67;;;;;;;17.90;44.58;98577.06;5158232;28;20083;-81
2022/09/30 13:00:19;;;;;;;2.88;2.35;;;;;;;18.14;42.20;98597.97;5169077;28;20041;-80
2022/09/30 13:03:17;;;;;;;5.60;2.17;;;;;;;18.34;43.05;98607.94;5172262;28;20089;-80
2022/09/30 13:06:07;;;;;;;2.90;1.50;;;;;;;18.15;41.10;98605.03;5168457;28;20057;-82
2022/09/30 13:09:10;;;;;;;3.58;1.42;;;;;;;17.44;40.24;98616.00;5175135;28;20694;-82
2022/09/30 13:12:00;;;;;;;4.22;2.10;;;;;;;17.74;42.08;98608.53;5175774;28;20065;-81
2022/09/30 13:15:28;;;;;;;6.53;1.65;;;;;;;18.29;41.45;98603.19;5177677;28;20057;-81
2022/09/30 13:18:18;;;;;;;1.88;1.50;;;;;;;18.10;40.96;98603.97;5161912;28;20079;-82
2022/09/30 13:21:09;;;;;;;2.65;1.50;;;;;;;17.85;41.11;98607.19;5160574;28;20065;-81
2022/09/30 13:24:00;;;;;;;4.80;1.63;;;;;;;17.86;41.49;98602.66;5179229;28;20055;-81
2022/09/30 13:27:06;;;;;;;3.72;1.67;;;;;;;17.80;42.36;98589.00;5176836;28;20108;-81
2022/09/30 13:29:59;;;;;;;5.28;1.50;;;;;;;17.82;44.20;98594.16;5174603;28;20055;-82
2022/09/30 13:32:56;;;;;;;3.85;1.75;;;;;;;17.68;42.20;98612.03;5184080;28;20052;-83
2022/09/30 13:35:47;;;;;;;2.92;1.50;;;;;;;18.19;41.11;98610.81;5182183;28;20057;-82
2022/09/30 13:38:39;;;;;;;1.63;1.30;;;;;;;18.16;42.58;98595.09;5163540;28;20133;-82
2022/09/30 13:41:33;;;;;;;3.45;1.58;;;;;;;18.19;42.46;98600.91;5153656;28;20061;-80
2022/09/30 13:44:34;;;;;;;2.50;1.70;;;;;;;18.26;41.13;98596.38;5155088;28;20054;-80
2022/09/30 13:47:57;;;;;;;2.28;1.50;;;;;;;18.49;44.01;98608.59;5174575;28;20069;-82
2022/09/30 13:50:51;;;;;;;3.83;1.42;;;;;;;18.52;42.51;98610.88;5166924;28;20079;-80
2022/09/30 13:53:50;;;;;;;1.65;1.33;;;;;;;18.61;40.23;98612.34;5167958;28;20566;-79
2022/09/30 13:56:42;;;;;;;1.42;1.30;;;;;;;18.32;42.98;98608.16;5160888;28;20057;-80
2022/09/30 14:00:01;;;;;;;2.25;1.60;;;;;;;18.41;43.33;98606.09;5170533;28;20050;-82